Time;durP1;ratioP1;P1;durP2;ratioP2;P2;SDS_P1;SDS_P2;PMS_P1;PMS_P2;Temp;Humidity;BMP_temperature;BMP_pressure;BME280_temperature;BME280_humidity;BME280_pressure;Samples;Min_cycle;Max_cycle;Signal;HPM_P1;HPM_P2
2021/09/23 00:00:24;;;;;;;25.58;12.82;;;;;;;10.55;87.78;99281.09;5068561;28;20476;-57
2021/09/23 00:05:24;;;;;;;29.38;13.27;;;;;;;10.58;87.56;99285.31;5084247;28;20051;-54
2021/09/23 00:07:52;;;;;;;21.85;11.80;;;;;;;10.60;87.74;99286.94;5069979;28;20131;-54
2021/09/23 00:10:21;;;;;;;29.05;11.90;;;;;;;10.60;87.86;99284.34;5068111;28;20578;-57
2021/09/23 00:12:47;;;;;;;26.67;13.02;;;;;;;10.55;87.96;99265.50;5051126;28;20052;-56
2021/09/23 00:15:15;;;;;;;27.45;12.82;;;;;;;10.60;88.09;99284.34;5051449;28;20036;-54
2021/09/23 00:17:48;;;;;;;27.80;12.88;;;;;;;10.61;88.00;99273.06;5069716;28;20041;-55
2021/09/23 00:20:27;;;;;;;31.70;13.50;;;;;;;10.65;88.23;99280.72;5068130;28;20193;-56
2021/09/23 00:22:53;;;;;;;26.27;13.25;;;;;;;10.65;87.81;99280.72;5072728;28;20569;-55
2021/09/23 00:25:19;;;;;;;27.52;12.10;;;;;;;10.65;88.47;99285.91;5073085;28;20036;-53
2021/09/23 00:28:01;;;;;;;31.15;13.80;;;;;;;10.65;88.31;99284.16;5072940;28;20113;-52
2021/09/23 00:30:27;;;;;;;35.95;14.70;;;;;;;10.66;87.96;99283.25;5054806;28;20392;-53
2021/09/23 00:32:54;;;;;;;33.35;13.50;;;;;;;10.67;87.89;99278.91;5073266;28;20511;-53
2021/09/23 00:35:20;;;;;;;30.52;13.48;;;;;;;10.65;87.86;99276.38;5075327;28;20139;-56
2021/09/23 00:37:47;;;;;;;33.50;14.10;;;;;;;10.62;88.75;99287.72;5055963;28;20127;-56
2021/09/23 00:40:13;;;;;;;37.78;15.20;;;;;;;10.59;88.58;99282.66;5071597;28;20028;-57
2021/09/23 00:42:40;;;;;;;32.67;13.30;;;;;;;10.58;88.94;99283.56;5071636;28;20052;-55
2021/09/23 00:45:07;;;;;;;27.40;12.77;;;;;;;10.58;88.73;99272.31;5079697;28;20519;-56
2021/09/23 00:47:33;;;;;;;31.13;13.52;;;;;;;10.57;88.53;99275.84;5072298;28;20143;-55
2021/09/23 00:50:03;;;;;;;33.00;13.98;;;;;;;10.62;88.01;99276.50;5072820;28;20068;-57
2021/09/23 00:52:31;;;;;;;28.42;12.82;;;;;;;10.60;88.26;99276.56;5071762;28;20421;-56
2021/09/23 00:54:59;;;;;;;33.08;13.23;;;;;;;10.60;88.57;99276.56;5054988;28;20041;-57
2021/09/23 00:57:25;;;;;;;30.20;13.25;;;;;;;10.59;88.50;99272.25;5071653;28;20048;-54
2021/09/23 00:59:53;;;;;;;34.05;13.45;;;;;;;10.61;88.16;99275.66;5076437;28;20032;-59
2021/09/23 01:02:20;;;;;;;25.63;12.63;;;;;;;10.63;88.07;99270.38;5091889;28;20055;-59
2021/09/23 01:04:47;;;;;;;30.75;12.00;;;;;;;10.61;88.55;99267.84;5054502;28;20048;-59
2021/09/23 01:07:18;;;;;;;26.90;11.68;;;;;;;10.63;88.32;99262.56;5065145;28;20536;-54
2021/09/23 01:09:47;;;;;;;25.30;11.90;;;;;;;10.61;88.74;99261.81;5067810;28;20575;-54
2021/09/23 01:12:14;;;;;;;25.30;12.23;;;;;;;10.62;88.35;99264.31;5080635;28;20093;-55
2021/09/23 01:14:42;;;;;;;25.00;11.82;;;;;;;10.61;88.73;99269.59;5071552;28;20094;-56
2021/09/23 01:17:08;;;;;;;29.33;13.57;;;;;;;10.58;88.57;99262.75;5075735;28;20040;-56
2021/09/23 01:19:38;;;;;;;27.38;12.48;;;;;;;10.53;88.48;99250.84;5083890;28;20044;-55
2021/09/23 01:22:05;;;;;;;29.73;12.48;;;;;;;10.61;88.76;99260.06;5090218;28;20450;-56
2021/09/23 01:25:05;;;;;;;27.30;12.38;;;;;;;10.61;89.07;99257.44;5061528;28;20053;-56
2021/09/23 01:27:33;;;;;;;28.60;13.10;;;;;;;10.63;89.33;99249.56;5071147;28;20038;-55
2021/09/23 01:30:00;;;;;;;29.45;13.63;;;;;;;10.63;89.60;99247.81;5087924;28;20041;-55
2021/09/23 01:32:27;;;;;;;28.00;13.20;;;;;;;10.62;89.27;99240.91;5070597;28;20044;-52
2021/09/23 01:34:53;;;;;;;31.52;12.95;;;;;;;10.55;89.77;99226.50;5056790;28;20036;-58
2021/09/23 01:37:19;;;;;;;31.50;14.00;;;;;;;10.60;89.80;99236.72;5071222;28;20048;-56
2021/09/23 01:39:50;;;;;;;39.10;14.10;;;;;;;10.60;90.33;99244.50;5083859;28;20104;-57
2021/09/23 01:42:23;;;;;;;35.97;14.98;;;;;;;10.60;90.00;99244.50;5064359;28;20047;-57
2021/09/23 01:44:48;;;;;;;35.08;13.70;;;;;;;10.61;90.32;99241.00;5088844;28;20047;-57
2021/09/23 01:47:15;;;;;;;31.63;13.65;;;;;;;10.61;90.76;99239.25;5070979;28;20078;-57
2021/09/23 01:49:48;;;;;;;32.17;14.43;;;;;;;10.62;90.79;99233.13;5089846;28;20058;-56
2021/09/23 01:52:14;;;;;;;41.22;14.52;;;;;;;10.64;91.16;99235.66;5091193;28;20519;-51
2021/09/23 01:54:48;;;;;;;34.03;14.30;;;;;;;10.60;90.85;99221.13;5086079;28;20040;-55
2021/09/23 01:57:16;;;;;;;33.25;14.45;;;;;;;10.66;90.70;99230.41;5070133;28;20040;-54
2021/09/23 01:59:43;;;;;;;32.65;14.95;;;;;;;10.67;90.66;99229.50;5053498;28;20511;-56
2021/09/23 02:02:14;;;;;;;33.85;14.90;;;;;;;10.66;90.63;99231.25;5053465;28;20435;-55
2021/09/23 02:04:40;;;;;;;32.33;14.68;;;;;;;10.63;91.49;99227.03;5070390;28;20040;-54
2021/09/23 02:07:06;;;;;;;34.35;15.55;;;;;;;10.61;91.06;99220.22;5069962;28;20075;-56
2021/09/23 02:09:33;;;;;;;35.92;14.98;;;;;;;10.61;91.87;99221.06;5071108;28;20515;-57
2021/09/23 02:12:02;;;;;;;41.78;16.20;;;;;;;10.62;92.36;99209.72;5054503;28;20516;-59
2021/09/23 02:14:29;;;;;;;33.58;15.13;;;;;;;10.65;92.02;99221.75;5087484;28;20086;-57
2021/09/23 02:16:55;;;;;;;39.17;15.40;;;;;;;10.67;91.94;99221.72;5073723;28;20427;-55
2021/09/23 02:19:47;;;;;;;34.70;14.57;;;;;;;10.59;92.12;99209.88;5074143;28;20040;-56
2021/09/23 02:22:17;;;;;;;33.15;14.70;;;;;;;10.63;92.82;99219.22;5090577;28;20040;-56
2021/09/23 02:24:44;;;;;;;36.95;15.50;;;;;;;10.65;92.24;99210.53;5087051;28;20109;-57
2021/09/23 02:27:10;;;;;;;32.80;14.80;;;;;;;10.60;92.40;99200.31;5079403;28;20041;-56
2021/09/23 02:29:37;;;;;;;35.88;15.05;;;;;;;10.69;92.61;99206.88;5053021;28;20045;-56
2021/09/23 02:32:04;;;;;;;39.88;15.13;;;;;;;10.69;92.97;99193.88;5078147;28;20044;-57
2021/09/23 02:34:30;;;;;;;31.02;13.88;;;;;;;10.69;92.87;99205.13;5086828;28;20051;-56
2021/09/23 02:36:56;;;;;;;36.70;15.57;;;;;;;10.72;93.45;99202.41;5069863;28;20040;-56
2021/09/23 02:39:22;;;;;;;33.05;14.70;;;;;;;10.70;92.96;99199.03;5069639;28;20114;-59
2021/09/23 02:41:47;;;;;;;30.95;13.88;;;;;;;10.72;93.51;99199.81;5069608;28;20036;-54
2021/09/23 02:44:13;;;;;;;34.05;13.98;;;;;;;10.76;93.93;99210.91;5072348;28;20044;-55
2021/09/23 02:46:39;;;;;;;32.65;14.40;;;;;;;10.75;93.94;99201.41;5053337;28;20577;-55
2021/09/23 02:49:05;;;;;;;33.80;13.93;;;;;;;10.66;94.02;99187.06;5072123;28;20059;-54
2021/09/23 02:51:30;;;;;;;35.38;14.93;;;;;;;10.74;93.75;99189.31;5070806;28;20036;-54
2021/09/23 02:53:56;;;;;;;31.40;13.23;;;;;;;10.74;94.00;99200.56;5070185;28;20040;-59
2021/09/23 02:56:22;;;;;;;35.78;13.82;;;;;;;10.74;94.74;99202.31;5073064;28;20040;-59
2021/09/23 02:58:50;;;;;;;33.25;13.60;;;;;;;10.77;94.80;99195.25;5096109;28;20511;-53
2021/09/23 03:01:17;;;;;;;33.15;13.40;;;;;;;10.78;94.25;99193.50;5072849;28;20063;-54
2021/09/23 03:03:43;;;;;;;33.08;12.25;;;;;;;10.68;94.87;99185.22;5069196;28;20036;-56
2021/09/23 03:06:09;;;;;;;30.33;12.50;;;;;;;10.76;94.99;99196.16;5064892;28;20052;-56
2021/09/23 03:08:35;;;;;;;28.35;12.57;;;;;;;10.78;95.46;99198.72;5069181;28;20397;-54
2021/09/23 03:11:00;;;;;;;33.08;13.98;;;;;;;10.78;94.90;99198.72;5069468;28;20408;-55
2021/09/23 03:13:26;;;;;;;24.00;11.15;;;;;;;10.77;95.06;99195.25;5079468;28;20044;-54
2021/09/23 03:15:52;;;;;;;25.48;11.73;;;;;;;10.79;95.21;99200.38;5076046;28;20041;-53
2021/09/23 03:18:17;;;;;;;22.50;10.63;;;;;;;10.79;95.65;99198.63;5069274;28;20551;-54
2021/09/23 03:20:45;;;;;;;27.85;11.98;;;;;;;10.81;95.47;99188.16;5069346;28;20044;-55
2021/09/23 03:23:15;;;;;;;21.10;11.07;;;;;;;10.83;95.04;99192.41;5081277;28;20044;-54
2021/09/23 03:25:41;;;;;;;22.30;10.00;;;;;;;10.82;95.42;99189.84;5074480;28;20040;-52
2021/09/23 03:28:07;;;;;;;20.75;10.20;;;;;;;10.85;95.07;99192.31;5070441;28;20079;-56
2021/09/23 03:30:34;;;;;;;21.55;10.55;;;;;;;10.84;95.60;99195.81;5069086;28;20451;-57
2021/09/23 03:33:05;;;;;;;24.95;12.00;;;;;;;10.86;95.97;99194.00;5073897;28;20094;-52
2021/09/23 03:35:31;;;;;;;22.77;10.07;;;;;;;10.85;96.34;99193.16;5070159;28;20131;-53
2021/09/23 03:37:58;;;;;;;19.25;9.50;;;;;;;10.83;96.08;99187.19;5068974;28;20097;-55
2021/09/23 03:40:25;;;;;;;26.17;10.35;;;;;;;10.83;96.93;99192.41;5078189;28;20044;-57
2021/09/23 03:42:51;;;;;;;26.42;10.60;;;;;;;10.83;97.61;99194.16;5068921;28;20041;-56
2021/09/23 03:45:17;;;;;;;18.73;9.15;;;;;;;10.79;98.01;99190.81;5070175;28;20461;-55
2021/09/23 03:47:43;;;;;;;22.58;10.88;;;;;;;10.75;99.67;99180.63;5068781;28;20040;-56
2021/09/23 03:50:10;;;;;;;19.48;9.82;;;;;;;10.76;100.00;99196.16;5073004;28;20059;-55
2021/09/23 03:52:36;;;;;;;22.05;10.32;;;;;;;10.75;100.00;99188.41;5068856;28;20040;-58
2021/09/23 03:55:03;;;;;;;22.98;9.50;;;;;;;10.77;100.00;99189.22;5069122;28;20534;-58
2021/09/23 03:57:29;;;;;;;23.85;9.73;;;;;;;10.77;100.00;99194.41;5078655;28;20067;-58
2021/09/23 03:59:55;;;;;;;19.60;8.85;;;;;;;10.75;100.00;99202.25;5084215;28;20452;-55
2021/09/23 04:02:22;;;;;;;18.95;8.68;;;;;;;10.66;100.00;99181.03;5069643;28;20097;-57
2021/09/23 04:04:47;;;;;;;22.13;9.10;;;;;;;10.75;100.00;99199.66;5076501;28;20047;-59
2021/09/23 04:07:13;;;;;;;18.33;8.77;;;;;;;10.77;100.00;99197.84;5070326;28;20506;-57
2021/09/23 04:09:39;;;;;;;19.00;8.65;;;;;;;10.78;100.00;99196.09;5075744;28;20045;-59
2021/09/23 04:12:05;;;;;;;21.98;8.68;;;;;;;10.75;100.00;99193.63;5081036;28;20062;-58
2021/09/23 04:14:31;;;;;;;18.17;8.50;;;;;;;10.75;100.00;99199.66;5068643;28;20575;-59
2021/09/23 04:16:57;;;;;;;19.25;8.10;;;;;;;10.69;100.00;99181.72;5068479;28;20063;-57
2021/09/23 04:19:23;;;;;;;17.75;8.30;;;;;;;10.74;100.00;99186.72;5080079;28;20040;-57
2021/09/23 04:21:50;;;;;;;19.05;8.40;;;;;;;10.71;100.00;99177.31;5072871;28;20048;-59
2021/09/23 04:24:16;;;;;;;19.73;8.40;;;;;;;10.70;100.00;99175.63;5102978;28;20474;-60
2021/09/23 04:26:42;;;;;;;19.77;8.65;;;;;;;10.69;100.00;99167.88;5096312;28;20450;-59
2021/09/23 04:29:08;;;;;;;21.10;8.68;;;;;;;10.70;100.00;99166.97;5068218;28;20051;-58
2021/09/23 04:31:35;;;;;;;15.90;7.25;;;;;;;10.70;100.00;99170.41;5068470;28;20044;-58
2021/09/23 04:34:02;;;;;;;17.25;7.40;;;;;;;10.72;100.00;99163.41;5070728;28;20050;-57
2021/09/23 04:36:29;;;;;;;17.13;7.37;;;;;;;10.73;100.00;99164.25;5089230;28;20518;-57
2021/09/23 04:38:55;;;;;;;12.70;7.30;;;;;;;10.74;100.00;99171.97;5082139;28;20043;-56
2021/09/23 04:41:21;;;;;;;15.38;6.88;;;;;;;10.74;100.00;99165.91;5085853;28;20123;-54
2021/09/23 04:43:48;;;;;;;15.40;6.80;;;;;;;10.78;100.00;99167.50;5069223;28;20093;-57
2021/09/23 04:46:22;;;;;;;14.50;7.68;;;;;;;10.80;100.00;99163.91;5080438;28;20469;-55
2021/09/23 04:48:52;;;;;;;14.88;7.30;;;;;;;10.85;100.00;99161.94;5080164;28;20048;-55
2021/09/23 04:51:20;;;;;;;12.68;7.38;;;;;;;10.89;100.00;99163.50;5071252;28;20063;-55
2021/09/23 04:53:46;;;;;;;12.77;6.90;;;;;;;10.94;100.00;99174.53;5084049;28;20039;-58
2021/09/23 04:56:13;;;;;;;16.92;6.90;;;;;;;10.99;100.00;99167.38;5092843;28;20046;-58
2021/09/23 04:58:39;;;;;;;12.88;6.93;;;;;;;10.95;100.00;99150.22;5108487;28;20039;-62
2021/09/23 05:01:04;;;;;;;12.52;6.45;;;;;;;11.11;100.00;99165.16;5073173;28;20064;-61
2021/09/23 05:03:30;;;;;;;10.90;5.38;;;;;;;11.14;100.00;99167.63;5059893;28;20036;-59
2021/09/23 05:05:57;;;;;;;11.90;5.85;;;;;;;11.19;100.00;99163.06;5075209;28;20673;-58
2021/09/23 05:08:23;;;;;;;13.02;5.78;;;;;;;11.25;100.00;99168.81;5079900;28;20431;-61
2021/09/23 05:10:50;;;;;;;10.45;6.82;;;;;;;11.22;100.00;99152.50;5060770;28;20052;-55
2021/09/23 05:13:16;;;;;;;10.23;5.45;;;;;;;11.28;100.00;99160.03;5071212;28;20119;-52
2021/09/23 05:15:42;;;;;;;16.88;8.35;;;;;;;11.30;100.00;99155.63;5090394;28;20626;-53
2021/09/23 05:18:09;;;;;;;13.68;7.20;;;;;;;11.35;100.00;99164.06;5072244;28;20048;-55
2021/09/23 05:20:35;;;;;;;16.35;7.38;;;;;;;11.41;100.00;99163.75;5076434;28;20037;-55
2021/09/23 05:23:01;;;;;;;9.18;5.28;;;;;;;11.49;100.00;99156.47;5071597;28;20058;-64
2021/09/23 05:25:27;;;;;;;8.07;4.90;;;;;;;11.54;100.00;99151.03;5070482;28;20044;-67
2021/09/23 05:27:54;;;;;;;9.05;5.28;;;;;;;11.53;100.00;99137.16;5071291;28;20051;-70
2021/09/23 05:30:20;;;;;;;14.05;8.02;;;;;;;11.56;100.00;99138.81;5079383;28;20507;-70
2021/09/23 05:32:46;;;;;;;6.85;4.47;;;;;;;11.66;100.00;99150.47;5071910;28;20064;-68
2021/09/23 05:35:12;;;;;;;8.95;4.20;;;;;;;11.62;100.00;99141.94;5072421;28;20127;-69
2021/09/23 05:37:40;;;;;;;8.00;4.93;;;;;;;11.69;100.00;99158.97;5077060;28;20036;-68
2021/09/23 05:40:08;;;;;;;7.93;4.82;;;;;;;11.70;100.00;99152.84;5088333;28;20500;-70
2021/09/23 05:42:34;;;;;;;15.27;5.82;;;;;;;11.72;100.00;99158.00;5091490;28;20555;-67
2021/09/23 05:45:02;;;;;;;10.10;5.00;;;;;;;11.74;100.00;99162.22;5091227;28;20519;-67
2021/09/23 05:47:28;;;;;;;16.35;10.13;;;;;;;11.76;100.00;99156.97;5074594;28;20114;-67
2021/09/23 05:49:54;;;;;;;7.03;4.97;;;;;;;11.75;100.00;99158.72;5092259;28;20044;-69
2021/09/23 05:52:20;;;;;;;12.95;5.90;;;;;;;11.74;100.00;99158.78;5069794;28;20401;-68
2021/09/23 05:54:47;;;;;;;10.85;6.60;;;;;;;11.68;100.00;99146.00;5078646;28;20098;-69
2021/09/23 05:57:19;;;;;;;6.43;4.90;;;;;;;11.51;100.00;99123.41;5091703;28;20424;-69
2021/09/23 05:59:45;;;;;;;17.27;9.50;;;;;;;11.64;100.00;99155.72;5086226;28;20063;-68
2021/09/23 06:02:11;;;;;;;10.73;6.38;;;;;;;11.57;100.00;99150.88;5080753;28;20104;-65
2021/09/23 06:04:36;;;;;;;13.35;6.50;;;;;;;11.62;100.00;99164.56;5072216;28;20051;-74
2021/09/23 06:07:02;;;;;;;6.32;4.32;;;;;;;11.61;100.00;99157.66;5071551;28;20075;-67
2021/09/23 06:09:28;;;;;;;6.45;4.70;;;;;;;11.60;100.00;99156.81;5072076;28;20040;-67
2021/09/23 06:11:54;;;;;;;7.07;4.57;;;;;;;11.57;100.00;99156.09;5084594;28;20523;-66
2021/09/23 06:14:19;;;;;;;8.80;5.90;;;;;;;11.54;100.00;99157.09;5073817;28;20595;-67
2021/09/23 06:16:45;;;;;;;7.60;4.45;;;;;;;11.53;100.00;99157.16;5068948;28;20044;-68
2021/09/23 06:19:11;;;;;;;6.65;4.20;;;;;;;11.52;100.00;99156.31;5070856;28;20067;-67
2021/09/23 06:21:36;;;;;;;6.80;4.88;;;;;;;11.55;100.00;99157.94;5070275;28;20063;-55
2021/09/23 06:24:02;;;;;;;6.38;4.65;;;;;;;11.54;100.00;99153.63;5070096;28;20054;-54
2021/09/23 06:26:28;;;;;;;6.63;4.18;;;;;;;11.56;100.00;99149.22;5071257;28;20059;-56
2021/09/23 06:28:55;;;;;;;10.20;4.80;;;;;;;11.51;100.00;99146.84;5071060;28;20044;-55
2021/09/23 06:31:21;;;;;;;7.43;4.45;;;;;;;11.53;100.00;99146.72;5070572;28;20142;-56
2021/09/23 06:33:48;;;;;;;8.15;4.25;;;;;;;11.55;100.00;99150.13;5089216;28;20059;-53
2021/09/23 06:36:14;;;;;;;6.82;4.63;;;;;;;11.53;100.00;99155.38;5069255;28;20048;-57
2021/09/23 06:38:40;;;;;;;8.02;4.65;;;;;;;11.52;100.00;99151.09;5070452;28;20400;-57
2021/09/23 06:41:05;;;;;;;5.88;4.18;;;;;;;11.57;100.00;99154.31;5109921;28;20059;-53
2021/09/23 06:43:31;;;;;;;10.23;5.55;;;;;;;11.60;100.00;99153.34;5088679;28;20043;-56
2021/09/23 06:45:57;;;;;;;7.80;5.55;;;;;;;11.66;100.00;99153.06;5100623;28;20040;-56
2021/09/23 06:48:22;;;;;;;11.35;6.00;;;;;;;11.66;100.00;99153.91;5090222;28;20054;-59
2021/09/23 06:50:48;;;;;;;15.85;7.63;;;;;;;11.73;100.00;99157.09;5091333;28;20036;-57
2021/09/23 06:53:14;;;;;;;9.02;4.63;;;;;;;11.80;100.00;99161.09;5091086;28;20070;-56
2021/09/23 06:55:39;;;;;;;14.50;7.47;;;;;;;11.81;100.00;99153.22;5091107;28;20036;-59
2021/09/23 06:58:05;;;;;;;12.25;6.70;;;;;;;11.84;100.00;99158.25;5090711;28;20043;-56
2021/09/23 07:00:49;;;;;;;10.80;6.78;;;;;;;11.87;100.00;99150.31;5099688;28;20073;-57
2021/09/23 07:03:34;;;;;;;14.60;7.60;;;;;;;11.87;99.71;99150.31;5094222;28;20138;-55
2021/09/23 07:06:20;;;;;;;6.65;4.13;;;;;;;11.86;99.47;99153.84;5079726;28;20056;-56
2021/09/23 07:08:46;;;;;;;6.80;4.60;;;;;;;11.92;99.26;99144.88;5102664;28;20438;-57
2021/09/23 07:11:15;;;;;;;8.55;5.22;;;;;;;11.97;99.12;99140.31;5099067;28;20040;-58
2021/09/23 07:13:41;;;;;;;11.75;7.20;;;;;;;12.00;98.87;99137.53;5101783;28;20097;-56
2021/09/23 07:16:07;;;;;;;14.18;5.85;;;;;;;12.01;98.73;99126.19;5081799;28;20419;-54
2021/09/23 07:18:33;;;;;;;8.75;6.10;;;;;;;12.17;98.43;99134.09;5083596;28;20707;-55
2021/09/23 07:20:59;;;;;;;16.17;8.13;;;;;;;12.33;98.16;99137.63;5088663;28;20036;-56
2021/09/23 07:23:25;;;;;;;15.27;9.73;;;;;;;12.37;97.40;99107.03;5094963;28;20044;-54
2021/09/23 07:25:53;;;;;;;24.02;13.07;;;;;;;12.65;96.60;99136.84;5077773;28;20069;-57
2021/09/23 07:28:19;;;;;;;10.60;6.25;;;;;;;12.72;95.66;99132.13;5092856;28;20043;-57
2021/09/23 07:30:45;;;;;;;14.88;9.07;;;;;;;12.72;95.25;99139.97;5089663;28;20094;-57
2021/09/23 07:33:11;;;;;;;12.52;6.55;;;;;;;12.67;94.87;99137.59;5081974;28;20040;-60
2021/09/23 07:35:36;;;;;;;8.82;5.55;;;;;;;12.69;94.77;99137.53;5085481;28;20075;-59
2021/09/23 07:38:03;;;;;;;12.05;7.10;;;;;;;12.71;94.24;99131.31;5088492;28;20040;-57
2021/09/23 07:40:29;;;;;;;16.50;10.90;;;;;;;12.69;94.47;99122.72;5065681;28;20047;-56
2021/09/23 07:42:54;;;;;;;9.93;6.38;;;;;;;12.78;93.81;99130.97;5082582;28;20036;-56
2021/09/23 07:45:20;;;;;;;10.23;6.65;;;;;;;12.79;92.97;99132.66;5089525;28;20046;-59
2021/09/23 07:47:46;;;;;;;11.70;7.03;;;;;;;12.74;92.51;99122.47;5099651;28;20067;-57
2021/09/23 07:50:12;;;;;;;12.63;8.65;;;;;;;12.72;92.59;99124.31;5094509;28;20445;-55
2021/09/23 07:52:39;;;;;;;18.77;10.77;;;;;;;12.75;92.34;99134.59;5106627;28;20528;-55
2021/09/23 07:55:05;;;;;;;9.98;5.78;;;;;;;12.76;92.42;99132.84;5105315;28;20118;-58
2021/09/23 07:57:32;;;;;;;11.80;7.07;;;;;;;12.72;92.53;99130.38;5068854;28;20036;-51
2021/09/23 07:59:58;;;;;;;12.00;7.65;;;;;;;12.68;92.68;99125.41;5068255;28;20507;-54
2021/09/23 08:02:24;;;;;;;17.25;9.52;;;;;;;12.66;92.92;99125.50;5068129;28;20053;-56
2021/09/23 08:04:49;;;;;;;21.48;10.88;;;;;;;12.65;92.98;99123.81;5068251;28;20046;-56
2021/09/23 08:07:17;;;;;;;11.20;5.68;;;;;;;12.63;93.10;99120.44;5078294;28;20087;-55
2021/09/23 08:09:43;;;;;;;9.48;6.03;;;;;;;12.63;93.10;99130.00;5108952;28;20092;-56
2021/09/23 08:12:10;;;;;;;22.05;8.50;;;;;;;12.47;93.28;99100.44;5108606;28;20049;-56
2021/09/23 08:14:37;;;;;;;15.27;8.27;;;;;;;12.59;93.32;99111.09;5103352;28;20039;-55
2021/09/23 08:17:27;;;;;;;20.48;10.15;;;;;;;12.56;93.64;99110.41;5099083;28;20502;-56
2021/09/23 08:20:22;;;;;;;16.70;8.05;;;;;;;12.54;94.13;99113.09;5027750;28;20049;-58
2021/09/23 08:22:50;;;;;;;15.38;8.48;;;;;;;12.48;94.57;99099.50;5073742;28;20040;-56
2021/09/23 08:25:15;;;;;;;24.95;9.73;;;;;;;12.55;95.28;99101.75;5068399;28;20063;-54
2021/09/23 08:27:41;;;;;;;17.70;10.32;;;;;;;12.54;96.67;99102.66;5069216;28;20515;-55
2021/09/23 08:30:08;;;;;;;19.58;9.68;;;;;;;12.54;97.31;99104.41;5091825;28;20040;-55
2021/09/23 08:32:34;;;;;;;18.15;10.10;;;;;;;12.57;97.56;99101.63;5083907;28;20070;-55
2021/09/23 08:35:05;;;;;;;14.15;8.73;;;;;;;12.57;97.92;99096.44;5099396;28;20076;-56
2021/09/23 08:37:33;;;;;;;37.00;16.95;;;;;;;12.58;98.31;99098.13;5088192;28;20138;-56
2021/09/23 08:40:00;;;;;;;26.80;13.68;;;;;;;12.54;98.66;99087.00;5088155;28;20131;-57
2021/09/23 08:42:27;;;;;;;24.42;11.90;;;;;;;12.64;98.88;99093.44;5090533;28;20582;-56
2021/09/23 08:44:56;;;;;;;13.40;7.13;;;;;;;12.64;98.89;99093.44;5072340;28;20068;-56
2021/09/23 08:47:22;;;;;;;14.40;8.23;;;;;;;12.70;98.66;99089.66;5064494;28;20040;-63
2021/09/23 08:49:48;;;;;;;14.25;7.65;;;;;;;12.77;99.02;99096.22;5079171;28;20040;-58
2021/09/23 08:52:14;;;;;;;20.52;9.35;;;;;;;12.81;98.67;99078.66;5083097;28;20106;-59
2021/09/23 08:54:39;;;;;;;14.25;8.25;;;;;;;12.95;98.72;99084.81;5072732;28;20102;-50
2021/09/23 08:57:06;;;;;;;10.60;7.05;;;;;;;13.01;98.33;99079.28;5092970;28;20055;-61
2021/09/23 08:59:33;;;;;;;13.45;7.45;;;;;;;13.06;97.31;99082.50;5091137;28;20396;-58
2021/09/23 09:01:59;;;;;;;27.58;14.90;;;;;;;13.10;97.00;99077.94;5084022;28;20051;-60
2021/09/23 09:04:51;;;;;;;17.00;8.70;;;;;;;13.12;97.16;99084.81;5070995;28;20490;-57
2021/09/23 09:07:39;;;;;;;15.75;8.48;;;;;;;13.21;96.50;99075.63;5091737;28;20056;-57
2021/09/23 09:10:14;;;;;;;20.52;11.00;;;;;;;13.35;95.69;99073.09;5096898;28;20082;-57
2021/09/23 09:12:41;;;;;;;10.50;7.38;;;;;;;13.38;94.96;99079.91;5076148;28;20144;-55
2021/09/23 09:15:07;;;;;;;12.85;7.63;;;;;;;13.28;94.18;99081.34;5068326;28;20518;-56
2021/09/23 09:17:35;;;;;;;15.35;8.38;;;;;;;13.26;93.75;99075.38;5091232;28;20519;-56
2021/09/23 09:20:03;;;;;;;20.90;10.55;;;;;;;13.22;93.24;99074.69;5089747;28;20044;-58
2021/09/23 09:22:31;;;;;;;22.30;10.47;;;;;;;13.25;93.35;99078.88;5070967;28;20044;-58
2021/09/23 09:25:01;;;;;;;22.15;12.27;;;;;;;13.21;93.76;99074.78;5089817;28;20050;-56
2021/09/23 09:27:32;;;;;;;25.15;14.02;;;;;;;13.19;94.44;99077.47;5100618;28;20044;-51
2021/09/23 09:30:05;;;;;;;31.90;17.80;;;;;;;13.17;94.65;99066.28;5079193;28;20055;-51
2021/09/23 09:32:34;;;;;;;31.83;16.52;;;;;;;13.15;94.92;99073.34;5090563;28;20078;-55
2021/09/23 09:34:59;;;;;;;19.20;12.15;;;;;;;13.13;95.18;99065.63;5088812;28;20046;-54
2021/09/23 09:37:25;;;;;;;25.55;13.10;;;;;;;13.09;95.22;99064.03;5072542;28;20048;-61
2021/09/23 09:39:59;;;;;;;20.17;11.40;;;;;;;13.13;95.46;99068.22;5071471;28;20032;-52
2021/09/23 09:42:32;;;;;;;13.52;8.35;;;;;;;13.11;95.46;99064.84;5056860;28;20048;-52
2021/09/23 09:45:00;;;;;;;16.25;9.57;;;;;;;13.10;94.92;99063.13;5098037;28;20047;-55
2021/09/23 09:47:33;;;;;;;15.50;9.70;;;;;;;13.08;95.08;99056.31;5086663;28;20045;-55
2021/09/23 09:50:13;;;;;;;11.20;6.93;;;;;;;13.04;94.99;99063.44;5070673;28;20098;-53
2021/09/23 09:52:38;;;;;;;;;;;;;;;13.06;94.25;99063.38;5088237;28;20581;-50
2021/09/23 09:55:09;;;;;;;10.13;6.25;;;;;;;12.99;93.44;99052.41;5070709;28;19924;-52
2021/09/23 09:57:49;;;;;;;9.68;6.07;;;;;;;12.91;92.67;99052.00;5071810;28;20468;-55
2021/09/23 10:00:17;;;;;;;10.82;7.47;;;;;;;12.85;92.86;99052.31;5071005;28;20427;-59
2021/09/23 10:02:47;;;;;;;9.23;6.70;;;;;;;12.90;92.73;99062.50;5063914;28;20044;-54
2021/09/23 10:05:20;;;;;;;8.23;6.05;;;;;;;12.89;92.38;99056.44;5075234;28;20082;-54
2021/09/23 10:07:49;;;;;;;9.27;6.18;;;;;;;12.84;92.12;99045.41;5054723;28;20048;-58
2021/09/23 10:10:18;;;;;;;10.43;6.55;;;;;;;12.73;92.51;99032.94;5055789;28;20052;-55
2021/09/23 10:12:47;;;;;;;11.25;7.05;;;;;;;12.90;94.28;99044.25;5072137;28;20110;-53
2021/09/23 10:15:17;;;;;;;11.10;7.40;;;;;;;13.02;95.13;99041.84;5077084;28;20048;-56
2021/09/23 10:17:45;;;;;;;10.25;7.32;;;;;;;13.18;95.42;99031.44;5100245;27;20716;-55
2021/09/23 10:20:13;;;;;;;17.48;10.07;;;;;;;13.26;95.97;99037.06;5063378;28;20044;-55
2021/09/23 10:22:40;;;;;;;15.70;10.50;;;;;;;13.33;96.81;99042.78;5073666;28;20097;-55
2021/09/23 10:25:10;;;;;;;16.92;10.15;;;;;;;13.35;96.40;99035.69;5071854;28;20048;-55
2021/09/23 10:28:00;;;;;;;25.13;14.23;;;;;;;13.42;96.39;99040.50;5081000;28;20517;-56
2021/09/23 10:30:40;;;;;;;19.40;12.20;;;;;;;13.34;97.19;99045.31;5061654;28;20047;-55
2021/09/23 10:33:08;;;;;;;19.92;12.75;;;;;;;13.28;97.35;99026.53;5073820;28;20036;-53
2021/09/23 10:35:35;;;;;;;19.70;12.20;;;;;;;13.36;97.69;99029.53;5071167;28;20048;-55
2021/09/23 10:38:11;;;;;;;16.70;11.43;;;;;;;13.41;97.45;99030.13;5086047;28;20091;-56
2021/09/23 10:40:38;;;;;;;17.77;11.15;;;;;;;13.45;95.87;99031.66;5080779;28;20036;-56
2021/09/23 10:43:09;;;;;;;16.70;10.65;;;;;;;13.42;95.03;99029.19;5079068;28;20108;-55
2021/09/23 10:45:35;;;;;;;15.73;9.73;;;;;;;13.43;94.39;99030.91;5089787;28;20036;-52
2021/09/23 10:48:02;;;;;;;17.95;11.15;;;;;;;13.46;93.44;99026.31;5080149;28;20059;-54
2021/09/23 10:50:33;;;;;;;17.80;12.00;;;;;;;13.61;93.42;99029.03;5074079;28;20041;-54
2021/09/23 10:53:05;;;;;;;18.20;13.70;;;;;;;13.70;93.52;99024.09;5070049;28;20063;-54
2021/09/23 10:55:35;;;;;;;18.80;12.88;;;;;;;13.83;92.90;99019.84;5076201;28;20376;-53
2021/09/23 10:58:05;;;;;;;17.42;11.73;;;;;;;13.92;92.77;99013.25;5089636;28;20040;-53
2021/09/23 11:00:33;;;;;;;21.08;13.50;;;;;;;14.14;92.07;99018.88;5089259;28;20478;-52
2021/09/23 11:03:07;;;;;;;20.52;12.45;;;;;;;14.22;91.75;99021.91;5089135;28;20039;-52
2021/09/23 11:05:34;;;;;;;17.83;12.65;;;;;;;14.20;91.25;99015.06;5055192;28;20420;-55
2021/09/23 11:08:03;;;;;;;19.15;12.18;;;;;;;14.13;90.75;99013.75;5089290;28;20086;-55
2021/09/23 11:10:28;;;;;;;19.70;12.55;;;;;;;14.09;90.05;99014.84;5088672;28;20050;-53
2021/09/23 11:12:57;;;;;;;20.40;12.45;;;;;;;14.07;89.83;99016.72;5089032;28;20047;-55
2021/09/23 11:15:28;;;;;;;19.88;12.38;;;;;;;13.99;88.42;99012.78;5072645;28;20074;-52
2021/09/23 11:17:57;;;;;;;16.83;11.80;;;;;;;13.86;87.39;98992.72;5089203;28;20558;-54
2021/09/23 11:20:27;;;;;;;15.77;11.70;;;;;;;13.86;85.59;99014.47;5089196;28;20078;-55
2021/09/23 11:22:58;;;;;;;21.98;12.48;;;;;;;13.92;85.73;99011.47;5068209;28;20048;-56
2021/09/23 11:25:31;;;;;;;19.63;12.27;;;;;;;14.00;86.25;99008.41;5068599;28;20143;-54